createdAt,value
2019-01-24T00:00:44.045Z,80.90
2019-01-24T00:03:16.816Z,80.70
2019-01-24T00:05:48.941Z,80.30
2019-01-24T00:08:21.429Z,79.90
2019-01-24T00:10:53.702Z,79.10
2019-01-24T00:13:26.014Z,78.90
2019-01-24T00:15:58.449Z,77.90
2019-01-24T00:18:30.774Z,77.80
2019-01-24T00:21:03.183Z,76.60
2019-01-24T00:23:35.248Z,75.90
2019-01-24T00:26:07.641Z,75.80
2019-01-24T00:28:39.829Z,76.10
2019-01-24T00:31:12.119Z,75.20
2019-01-24T00:33:44.579Z,74.30
2019-01-24T00:36:16.909Z,73.30
2019-01-24T00:38:49.083Z,73.40
2019-01-24T00:41:21.874Z,73.30
2019-01-24T00:43:54.337Z,73.00
2019-01-24T00:46:26.502Z,72.90
2019-01-24T00:48:58.676Z,72.80
2019-01-24T00:51:30.750Z,72.30
2019-01-24T00:54:02.833Z,72.10
2019-01-24T00:56:35.282Z,71.00
2019-01-24T00:59:07.349Z,71.80
2019-01-24T01:01:40.010Z,70.10
2019-01-24T01:04:14.088Z,71.50
2019-01-24T01:06:45.747Z,69.60
2019-01-24T01:09:17.954Z,69.60
2019-01-24T01:11:50.340Z,67.70
2019-01-24T01:14:22.513Z,68.70
2019-01-24T01:16:54.676Z,66.60
2019-01-24T01:19:26.774Z,67.10
2019-01-24T01:21:59.342Z,67.20
2019-01-24T01:24:31.890Z,68.10
2019-01-24T01:27:04.266Z,66.80
2019-01-24T01:29:36.618Z,66.60
2019-01-24T01:32:08.760Z,68.40
2019-01-24T01:34:40.879Z,66.90
2019-01-24T01:37:13.100Z,66.60
2019-01-24T01:39:46.459Z,65.80
2019-01-24T01:42:18.670Z,66.40
2019-01-24T01:44:51.002Z,64.80
2019-01-24T01:47:23.231Z,65.40
2019-01-24T01:49:55.584Z,65.40
2019-01-24T01:52:28.881Z,62.90
2019-01-24T01:55:01.244Z,62.70
2019-01-24T01:57:33.570Z,61.80
2019-01-24T02:00:07.321Z,62.80
2019-01-24T02:02:39.607Z,60.60
2019-01-24T02:05:13.069Z,60.90
2019-01-24T02:07:45.286Z,60.40
2019-01-24T02:10:19.971Z,59.70
2019-01-24T02:12:52.319Z,59.70
2019-01-24T02:15:24.712Z,59.10
2019-01-24T02:17:56.856Z,60.00
2019-01-24T02:20:29.305Z,58.10
2019-01-24T02:23:01.447Z,57.60
2019-01-24T02:25:33.683Z,57.30
2019-01-24T02:28:06.269Z,57.90
2019-01-24T02:30:38.651Z,56.90
2019-01-24T02:33:11.136Z,56.60
2019-01-24T02:35:44.123Z,57.00
2019-01-24T02:38:17.189Z,56.30
2019-01-24T02:40:49.355Z,54.40
2019-01-24T02:43:21.511Z,55.90
2019-01-24T02:45:53.680Z,54.10
2019-01-24T02:48:25.952Z,54.60
2019-01-24T02:50:58.310Z,54.40
2019-01-24T02:53:30.828Z,54.50
2019-01-24T02:56:03.157Z,52.30
2019-01-24T02:58:35.508Z,53.20
2019-01-24T03:01:07.741Z,51.70
2019-01-24T03:03:39.791Z,51.90
2019-01-24T03:06:12.257Z,52.30
2019-01-24T03:08:44.388Z,50.70
2019-01-24T03:11:16.832Z,51.60
2019-01-24T03:13:48.966Z,49.90
2019-01-24T03:16:21.861Z,50.70
2019-01-24T03:18:54.214Z,50.60
2019-01-24T03:21:26.674Z,49.50
2019-01-24T03:23:59.182Z,49.20
2019-01-24T03:26:32.008Z,50.10
2019-01-24T03:29:04.250Z,49.70
2019-01-24T03:31:36.564Z,48.60
2019-01-24T03:34:09.296Z,49.10
2019-01-24T03:36:41.733Z,48.30
2019-01-24T03:39:14.492Z,48.60
2019-01-24T03:41:47.037Z,48.40
2019-01-24T03:44:19.263Z,48.00
2019-01-24T03:46:51.415Z,48.70
2019-01-24T03:49:24.615Z,47.60
2019-01-24T03:51:57.253Z,48.80
2019-01-24T03:54:29.704Z,47.20
2019-01-24T03:57:02.785Z,46.10
2019-01-24T03:59:35.420Z,47.10
2019-01-24T04:02:07.575Z,45.80
2019-01-24T04:04:40.042Z,44.40
2019-01-24T04:07:12.412Z,44.40
2019-01-24T04:09:44.463Z,43.40
2019-01-24T04:12:16.571Z,43.10
2019-01-24T04:14:48.879Z,41.70
2019-01-24T04:17:21.330Z,41.70
2019-01-24T04:19:53.411Z,44.60
2019-01-24T04:22:25.522Z,42.10
2019-01-24T04:24:57.656Z,41.80
2019-01-24T04:27:30.191Z,40.20
2019-01-24T04:30:02.720Z,40.60
2019-01-24T04:32:34.854Z,39.90
2019-01-24T04:35:09.705Z,39.60
2019-01-24T04:37:41.864Z,40.20
2019-01-24T04:40:15.947Z,39.40
2019-01-24T04:42:48.087Z,39.30
2019-01-24T04:45:21.578Z,38.20
2019-01-24T04:47:53.958Z,38.80
2019-01-24T04:50:26.014Z,37.30
2019-01-24T04:52:58.253Z,37.90
2019-01-24T04:55:30.363Z,38.20
2019-01-24T04:58:02.713Z,36.90
2019-01-24T05:00:35.027Z,37.90
2019-01-24T05:03:07.110Z,36.70
2019-01-24T05:05:39.387Z,37.20
2019-01-24T05:08:11.985Z,37.50
2019-01-24T05:10:44.107Z,37.10
2019-01-24T05:13:16.604Z,37.10
2019-01-24T05:15:48.625Z,37.40
2019-01-24T05:18:20.993Z,37.10
2019-01-24T05:20:53.419Z,38.30
2019-01-24T05:23:25.539Z,36.70
2019-01-24T05:25:57.558Z,35.50
2019-01-24T05:28:30.444Z,35.90
2019-01-24T05:31:02.704Z,34.50
2019-01-24T05:33:35.230Z,36.10
2019-01-24T05:36:07.832Z,33.30
2019-01-24T05:38:39.870Z,33.50
2019-01-24T05:41:12.081Z,33.80
2019-01-24T05:43:44.106Z,34.00
2019-01-24T05:46:17.737Z,34.10
2019-01-24T05:48:49.870Z,33.60
2019-01-24T05:51:22.319Z,35.90
2019-01-24T05:53:54.964Z,34.50
2019-01-24T05:56:27.546Z,33.60
2019-01-24T05:59:02.838Z,32.40
2019-01-24T06:01:35.728Z,32.60
2019-01-24T06:04:07.967Z,31.60
2019-01-24T06:06:40.445Z,33.60
2019-01-24T06:09:13.325Z,32.10
2019-01-24T06:11:45.691Z,32.00
2019-01-24T06:14:18.024Z,30.50
2019-01-24T06:16:50.084Z,32.00
2019-01-24T06:19:22.573Z,31.50
2019-01-24T06:21:54.857Z,30.70
2019-01-24T06:24:27.206Z,31.60
2019-01-24T06:26:59.474Z,32.50
2019-01-24T06:29:31.993Z,32.30
2019-01-24T06:32:04.148Z,31.50
2019-01-24T06:34:36.210Z,30.30
2019-01-24T06:37:08.833Z,31.40
2019-01-24T06:39:41.209Z,30.40
2019-01-24T06:42:13.431Z,30.10
2019-01-24T06:44:45.454Z,30.80
2019-01-24T06:47:17.818Z,31.80
2019-01-24T06:49:50.257Z,33.60
2019-01-24T06:52:23.877Z,31.60
2019-01-24T06:54:56.044Z,29.80
2019-01-24T06:57:28.485Z,30.30
2019-01-24T07:00:00.768Z,29.50
2019-01-24T07:02:33.536Z,30.90
2019-01-24T07:05:06.702Z,31.90
2019-01-24T07:07:39.638Z,30.10
2019-01-24T07:10:14.222Z,30.20
2019-01-24T07:12:46.589Z,29.60
2019-01-24T07:15:21.394Z,28.80
2019-01-24T07:17:53.567Z,29.10
2019-01-24T07:20:25.957Z,29.60
2019-01-24T07:22:57.892Z,29.60
2019-01-24T07:25:30.753Z,28.60
2019-01-24T07:28:02.872Z,29.10
2019-01-24T07:30:35.024Z,29.00
2019-01-24T07:33:07.111Z,30.20
2019-01-24T07:35:39.565Z,29.90
2019-01-24T07:38:11.673Z,30.00
2019-01-24T07:40:43.907Z,29.20
2019-01-24T07:43:16.115Z,28.80
2019-01-24T07:45:48.689Z,27.80
2019-01-24T07:48:20.810Z,27.70
2019-01-24T07:50:53.011Z,29.10
2019-01-24T07:53:25.357Z,29.70
2019-01-24T07:55:58.362Z,30.00
2019-01-24T07:58:30.773Z,27.60
2019-01-24T08:01:02.839Z,28.30
2019-01-24T08:03:35.243Z,28.40
2019-01-24T08:06:09.236Z,30.00
2019-01-24T08:08:44.331Z,28.30
2019-01-24T08:11:21.799Z,29.00
2019-01-24T08:13:54.051Z,27.90
2019-01-24T08:16:28.550Z,30.30
2019-01-24T08:19:00.822Z,30.50
2019-01-24T08:21:33.836Z,30.00
2019-01-24T08:24:07.151Z,31.10
2019-01-24T08:26:41.134Z,30.00
2019-01-24T08:29:13.171Z,30.50
2019-01-24T08:31:45.522Z,30.60
2019-01-24T08:34:19.027Z,31.30
2019-01-24T08:36:51.932Z,30.90
2019-01-24T08:39:24.331Z,33.40
2019-01-24T08:41:56.787Z,30.50
2019-01-24T08:44:29.118Z,30.40
2019-01-24T08:47:01.930Z,30.10
2019-01-24T08:49:34.289Z,30.50
2019-01-24T08:52:06.776Z,31.50
2019-01-24T08:54:39.582Z,30.80
2019-01-24T08:57:15.761Z,32.00
2019-01-24T08:59:51.715Z,30.30
2019-01-24T09:02:25.448Z,29.90
2019-01-24T09:04:57.587Z,30.60
2019-01-24T09:07:29.880Z,29.90
2019-01-24T09:10:01.993Z,30.90
2019-01-24T09:12:34.582Z,31.40
2019-01-24T09:15:09.173Z,30.90
2019-01-24T09:17:41.624Z,31.20
2019-01-24T09:20:16.467Z,29.80
2019-01-24T09:22:54.989Z,29.90
2019-01-24T09:25:22.066Z,32.30
2019-01-24T09:27:54.193Z,32.30
2019-01-24T09:30:28.449Z,32.50
2019-01-24T09:33:00.947Z,34.50
2019-01-24T09:35:33.455Z,33.80
2019-01-24T09:38:05.732Z,34.30
2019-01-24T09:40:38.415Z,35.20
2019-01-24T09:43:10.809Z,32.70
2019-01-24T09:45:43.277Z,34.90
2019-01-24T09:48:16.592Z,34.00
2019-01-24T09:50:49.555Z,34.30
2019-01-24T09:53:22.781Z,35.50
2019-01-24T09:55:55.053Z,35.10
2019-01-24T09:58:27.301Z,36.10
2019-01-24T10:01:00.110Z,35.20
2019-01-24T10:03:32.241Z,35.50
2019-01-24T10:06:04.813Z,36.80
2019-01-24T10:08:36.822Z,38.00
2019-01-24T10:11:09.061Z,35.80
2019-01-24T10:13:41.298Z,35.60
2019-01-24T10:16:13.447Z,34.80
2019-01-24T10:18:45.842Z,34.50
2019-01-24T10:21:18.006Z,37.00
2019-01-24T10:23:51.302Z,36.70
2019-01-24T10:26:23.215Z,35.20
2019-01-24T10:28:55.711Z,37.60
2019-01-24T10:31:27.852Z,37.10
2019-01-24T10:33:59.875Z,34.50
2019-01-24T10:36:32.488Z,38.70
2019-01-24T10:39:05.993Z,36.40
2019-01-24T10:41:38.092Z,38.10
2019-01-24T10:44:11.245Z,36.50
2019-01-24T10:46:43.343Z,37.30
2019-01-24T10:49:15.817Z,38.40
2019-01-24T10:51:48.468Z,40.00
2019-01-24T10:54:20.746Z,41.10
2019-01-24T10:56:52.759Z,41.10
2019-01-24T10:59:25.460Z,41.40
2019-01-24T11:01:57.790Z,42.00
2019-01-24T11:04:30.522Z,42.20
2019-01-24T11:07:03.160Z,41.90
2019-01-24T11:09:37.488Z,43.70
2019-01-24T11:12:10.226Z,42.90
2019-01-24T11:14:42.384Z,44.80
2019-01-24T11:17:14.623Z,45.30
2019-01-24T11:19:46.968Z,44.60
2019-01-24T11:22:19.032Z,45.00
2019-01-24T11:24:51.301Z,45.30
2019-01-24T11:27:23.526Z,47.10
2019-01-24T11:29:56.264Z,46.90
2019-01-24T11:32:28.435Z,47.30
2019-01-24T11:35:00.858Z,47.00
2019-01-24T11:37:33.316Z,46.50
2019-01-24T11:40:07.131Z,46.70
2019-01-24T11:42:39.710Z,48.00
2019-01-24T11:45:14.192Z,47.30
2019-01-24T11:47:46.369Z,46.90
2019-01-24T11:50:20.105Z,47.90
2019-01-24T11:52:52.791Z,49.40
2019-01-24T11:55:25.979Z,49.80
2019-01-24T11:57:58.630Z,49.60
2019-01-24T12:00:34.303Z,50.30
2019-01-24T12:03:07.572Z,50.30
2019-01-24T12:05:39.700Z,50.60
2019-01-24T12:08:13.122Z,49.60
2019-01-24T12:10:45.709Z,49.40
2019-01-24T12:13:18.109Z,49.30
2019-01-24T12:15:51.160Z,49.60
2019-01-24T12:18:23.773Z,51.00
2019-01-24T12:20:55.883Z,50.90
2019-01-24T12:23:28.272Z,53.10
2019-01-24T12:26:00.237Z,53.20
2019-01-24T12:28:32.925Z,53.90
2019-01-24T12:31:04.979Z,54.90
2019-01-24T12:33:38.577Z,55.90
2019-01-24T12:36:10.670Z,56.40
2019-01-24T12:38:43.174Z,56.10
2019-01-24T12:41:15.400Z,56.40
2019-01-24T12:43:47.708Z,56.30
2019-01-24T12:46:20.043Z,55.40
2019-01-24T12:48:52.168Z,54.50
2019-01-24T12:51:24.404Z,54.20
2019-01-24T12:53:56.416Z,54.90
2019-01-24T12:56:28.498Z,56.80
2019-01-24T12:59:01.104Z,55.50
2019-01-24T13:01:33.811Z,54.60
2019-01-24T13:04:05.861Z,54.80
2019-01-24T13:06:38.378Z,56.30
2019-01-24T13:09:11.595Z,57.90
2019-01-24T13:11:44.242Z,59.20
2019-01-24T13:14:16.740Z,58.70
2019-01-24T13:16:49.236Z,57.40
2019-01-24T13:19:21.641Z,57.40
2019-01-24T13:21:53.896Z,58.40
2019-01-24T13:24:25.974Z,57.80
2019-01-24T13:26:58.217Z,59.70
2019-01-24T13:29:30.377Z,58.60
2019-01-24T13:32:02.511Z,58.10
2019-01-24T13:34:34.540Z,58.10
2019-01-24T13:37:06.898Z,57.50
2019-01-24T13:39:39.508Z,57.20
2019-01-24T13:42:12.484Z,57.30
2019-01-24T13:44:45.579Z,57.40
2019-01-24T13:47:18.625Z,57.90
2019-01-24T13:49:50.796Z,58.50
2019-01-24T13:52:23.294Z,58.40
2019-01-24T13:54:55.527Z,59.00
2019-01-24T13:57:28.220Z,58.90
2019-01-24T14:00:00.264Z,58.50
2019-01-24T14:02:32.781Z,59.80
2019-01-24T14:05:04.917Z,59.30
2019-01-24T14:07:38.644Z,59.10
2019-01-24T14:10:13.909Z,59.50
2019-01-24T14:12:46.352Z,59.90
2019-01-24T14:15:20.085Z,61.80
2019-01-24T14:17:52.871Z,63.60
2019-01-24T14:20:25.085Z,63.60
2019-01-24T14:22:57.543Z,63.50
2019-01-24T14:25:29.652Z,62.50
2019-01-24T14:28:02.228Z,62.90
2019-01-24T14:30:34.372Z,62.10
2019-01-24T14:33:07.649Z,61.30
2019-01-24T14:35:41.958Z,62.80
2019-01-24T14:38:14.207Z,62.40
2019-01-24T14:40:47.116Z,61.60
2019-01-24T14:43:19.939Z,62.00
2019-01-24T14:45:52.548Z,60.50
2019-01-24T14:48:24.875Z,61.40
2019-01-24T14:50:57.125Z,60.30
2019-01-24T14:53:29.190Z,61.30
2019-01-24T14:56:01.715Z,61.00
2019-01-24T14:58:33.859Z,61.50
2019-01-24T15:01:07.831Z,61.50
2019-01-24T15:03:40.152Z,62.00
2019-01-24T15:06:12.275Z,60.90
2019-01-24T15:08:44.321Z,62.30
2019-01-24T15:11:16.760Z,62.30
2019-01-24T15:13:48.850Z,62.80
2019-01-24T15:16:21.235Z,63.10
2019-01-24T15:18:53.506Z,62.70
2019-01-24T15:21:25.773Z,62.30
2019-01-24T15:23:57.921Z,62.60
2019-01-24T15:26:30.581Z,62.90
2019-01-24T15:29:02.626Z,63.90
2019-01-24T15:31:35.171Z,63.40
2019-01-24T15:34:07.386Z,63.50
2019-01-24T15:36:39.654Z,63.50
2019-01-24T15:39:12.078Z,63.40
2019-01-24T15:41:45.007Z,65.00
2019-01-24T15:44:17.056Z,66.00
2019-01-24T15:46:50.176Z,66.10
2019-01-24T15:49:22.411Z,65.00
2019-01-24T15:51:56.022Z,66.10
2019-01-24T15:54:28.363Z,66.50
2019-01-24T15:57:00.834Z,66.50
2019-01-24T15:59:33.109Z,66.70
2019-01-24T16:02:05.316Z,66.10
2019-01-24T16:04:37.566Z,65.20
2019-01-24T16:07:09.820Z,65.70
2019-01-24T16:09:42.052Z,65.70
2019-01-24T16:12:14.076Z,65.30
2019-01-24T16:14:46.396Z,66.40
2019-01-24T16:17:19.107Z,66.80
2019-01-24T16:19:51.363Z,67.50
2019-01-24T16:22:23.733Z,66.70
2019-01-24T16:24:56.689Z,66.30
2019-01-24T16:27:29.215Z,65.00
2019-01-24T16:30:01.829Z,65.20
2019-01-24T16:32:34.307Z,66.60
2019-01-24T16:35:08.276Z,67.10
2019-01-24T16:37:41.460Z,67.70
2019-01-24T16:40:16.078Z,68.80
2019-01-24T16:42:49.190Z,68.60
2019-01-24T16:45:24.716Z,67.70
2019-01-24T16:47:57.985Z,67.20
2019-01-24T16:50:30.435Z,67.90
2019-01-24T16:53:03.573Z,67.40
2019-01-24T16:55:35.735Z,67.90
2019-01-24T16:58:08.406Z,68.60
2019-01-24T17:00:42.852Z,69.40
2019-01-24T17:03:17.007Z,70.00
2019-01-24T17:05:49.620Z,69.60
2019-01-24T17:08:22.112Z,70.20
2019-01-24T17:10:54.877Z,70.60
2019-01-24T17:13:27.144Z,70.80
2019-01-24T17:15:59.481Z,70.30
2019-01-24T17:18:31.895Z,70.80
2019-01-24T17:21:04.482Z,70.50
2019-01-24T17:23:36.962Z,70.70
2019-01-24T17:26:09.220Z,70.50
2019-01-24T17:28:41.445Z,71.40
2019-01-24T17:31:13.829Z,71.80
2019-01-24T17:33:45.857Z,72.10
2019-01-24T17:36:18.052Z,72.10
2019-01-24T17:38:50.112Z,72.10
2019-01-24T17:41:22.599Z,72.00
2019-01-24T17:43:54.639Z,73.90
2019-01-24T17:46:27.011Z,74.00
2019-01-24T17:48:59.030Z,74.50
2019-01-24T17:51:31.262Z,74.80
2019-01-24T17:54:03.227Z,75.70
2019-01-24T17:56:35.652Z,76.70
2019-01-24T17:59:07.987Z,75.70
2019-01-24T18:01:40.559Z,74.60
2019-01-24T18:04:12.591Z,74.80
2019-01-24T18:06:45.021Z,74.70
2019-01-24T18:09:17.181Z,74.80
2019-01-24T18:11:49.741Z,74.50
2019-01-24T18:14:21.907Z,74.30
2019-01-24T18:16:54.140Z,73.70
2019-01-24T18:19:26.271Z,73.90
2019-01-24T18:21:58.264Z,73.50
2019-01-24T18:24:30.568Z,74.00
2019-01-24T18:27:02.980Z,74.50
2019-01-24T18:29:35.503Z,75.40
2019-01-24T18:32:08.115Z,75.80
2019-01-24T18:34:40.259Z,76.30
2019-01-24T18:37:13.108Z,76.30
2019-01-24T18:39:45.826Z,75.70
2019-01-24T18:42:18.366Z,74.80
2019-01-24T18:44:50.500Z,75.20
2019-01-24T18:47:24.539Z,75.70
2019-01-24T18:49:56.621Z,76.20
2019-01-24T18:52:28.890Z,76.30
2019-01-24T18:55:01.010Z,77.80
2019-01-24T18:57:33.464Z,78.50
2019-01-24T19:00:07.324Z,79.40
2019-01-24T19:02:40.865Z,80.20
2019-01-24T19:05:14.543Z,79.30
2019-01-24T19:07:48.190Z,79.10
2019-01-24T19:10:20.672Z,78.20
2019-01-24T19:12:53.029Z,78.20
2019-01-24T19:15:25.943Z,79.00
2019-01-24T19:17:58.754Z,77.10
2019-01-24T19:20:31.094Z,78.10
2019-01-24T19:23:03.473Z,78.40
2019-01-24T19:25:35.829Z,78.10
2019-01-24T19:28:08.487Z,77.50
2019-01-24T19:30:40.920Z,77.50
2019-01-24T19:33:13.081Z,77.70
2019-01-24T19:35:45.281Z,77.60
2019-01-24T19:38:17.521Z,77.90
2019-01-24T19:40:49.789Z,77.80
2019-01-24T19:43:21.898Z,77.40
2019-01-24T19:45:54.047Z,78.50
2019-01-24T19:48:26.154Z,78.70
2019-01-24T19:50:59.378Z,78.20
2019-01-24T19:53:31.737Z,78.30
2019-01-24T19:56:03.799Z,79.30
2019-01-24T19:58:36.062Z,80.20
2019-01-24T20:01:08.026Z,82.50
2019-01-24T20:03:40.157Z,82.10
2019-01-24T20:06:12.549Z,81.70
2019-01-24T20:08:44.637Z,81.70
2019-01-24T20:11:17.316Z,82.20
2019-01-24T20:13:49.366Z,82.10
2019-01-24T20:16:21.945Z,81.30
2019-01-24T20:18:54.208Z,80.70
2019-01-24T20:21:26.484Z,80.40
2019-01-24T20:23:58.933Z,80.50
2019-01-24T20:26:31.176Z,80.20
2019-01-24T20:29:03.301Z,80.50
2019-01-24T20:31:35.454Z,81.30
2019-01-24T20:34:08.285Z,82.50
2019-01-24T20:36:41.376Z,82.10
2019-01-24T20:39:13.509Z,81.80
2019-01-24T20:41:45.692Z,82.00
2019-01-24T20:44:18.774Z,82.40
2019-01-24T20:46:50.922Z,82.20
2019-01-24T20:49:23.222Z,82.30
2019-01-24T20:51:55.507Z,81.40
2019-01-24T20:54:29.444Z,81.00
2019-01-24T20:57:02.126Z,81.50
2019-01-24T20:59:34.252Z,83.00
2019-01-24T21:02:06.513Z,84.00
2019-01-24T21:04:38.748Z,85.00
2019-01-24T21:07:11.461Z,84.10
2019-01-24T21:09:43.622Z,83.20
2019-01-24T21:12:16.404Z,82.40
2019-01-24T21:14:48.432Z,82.50
2019-01-24T21:17:20.649Z,82.70
2019-01-24T21:19:52.803Z,82.40
2019-01-24T21:22:25.071Z,81.60
2019-01-24T21:24:57.381Z,81.70
2019-01-24T21:27:29.946Z,81.00
2019-01-24T21:30:01.993Z,80.30
2019-01-24T21:32:35.529Z,81.00
2019-01-24T21:35:10.545Z,82.50
2019-01-24T21:37:43.222Z,81.50
2019-01-24T21:40:17.586Z,83.50
2019-01-24T21:42:49.688Z,83.00
2019-01-24T21:45:25.317Z,82.40
2019-01-24T21:47:57.657Z,82.40
2019-01-24T21:50:31.875Z,82.80
2019-01-24T21:53:04.085Z,84.30
2019-01-24T21:55:36.233Z,83.80
2019-01-24T21:58:08.686Z,83.00
2019-01-24T22:00:40.779Z,84.10
2019-01-24T22:03:12.905Z,85.30
2019-01-24T22:05:45.117Z,84.30
2019-01-24T22:08:17.451Z,83.90
2019-01-24T22:10:49.588Z,84.20
2019-01-24T22:13:22.056Z,84.30
2019-01-24T22:15:54.100Z,83.60
2019-01-24T22:18:26.560Z,83.70
2019-01-24T22:20:59.205Z,83.90
2019-01-24T22:23:31.692Z,84.80
2019-01-24T22:26:03.814Z,83.80
2019-01-24T22:28:35.952Z,83.90
2019-01-24T22:31:08.093Z,84.20
2019-01-24T22:33:40.518Z,83.50
2019-01-24T22:36:12.568Z,84.20
2019-01-24T22:38:45.175Z,83.90
2019-01-24T22:41:17.316Z,84.60
2019-01-24T22:43:49.591Z,84.10
2019-01-24T22:46:21.597Z,84.60
2019-01-24T22:48:54.688Z,84.60
2019-01-24T22:51:27.227Z,85.00
2019-01-24T22:53:59.660Z,84.50
2019-01-24T22:56:35.463Z,85.10
2019-01-24T22:59:05.790Z,85.70
2019-01-24T23:01:40.398Z,86.50
2019-01-24T23:04:13.342Z,85.50
2019-01-24T23:06:45.470Z,84.90
2019-01-24T23:09:19.297Z,84.60
2019-01-24T23:11:51.521Z,84.60
2019-01-24T23:14:23.939Z,84.60
2019-01-24T23:16:56.275Z,84.80
2019-01-24T23:19:28.720Z,85.40
2019-01-24T23:22:00.670Z,85.70
2019-01-24T23:24:32.852Z,85.30
2019-01-24T23:27:04.865Z,85.60
2019-01-24T23:29:37.194Z,86.60
2019-01-24T23:32:09.356Z,86.10
2019-01-24T23:34:41.621Z,85.50
2019-01-24T23:37:13.706Z,85.40
2019-01-24T23:39:51.713Z,85.90
2019-01-24T23:42:19.265Z,86.00
2019-01-24T23:44:51.604Z,85.30
2019-01-24T23:47:23.979Z,84.30
2019-01-24T23:49:56.260Z,84.30
2019-01-24T23:52:28.224Z,84.70
2019-01-24T23:55:00.268Z,85.30
2019-01-24T23:57:32.525Z,85.60
